Terminal Aerodrome Forecast
Issued by NWS Shreveport, LA

Home | Current Version | Previous Version | Text Only | Print | Product List | Glossary On
Versions: 1 2 3 4 5 6 7 8 9 10 11 12 13
570
FTUS44 KSHV 271120
TAFTXK
TAF
KTXK 271120Z 2712/2812 VRB04KT P6SM SKC
     FM271500 VRB06KT P6SM SCT035 SCT250
     FM271700 VRB06KT P6SM VCTS BKN045CB
     FM280200 VRB03KT P6SM SCT050 BKN250
     FM280600 VRB03KT P6SM SCT250=

USA.gov is the U.S. government's official web portal to all federal, state and local government web resources and services.